createdAt,value
2019-01-09T00:03:04.951Z,2.20
2019-01-09T00:08:07.071Z,2.19
2019-01-09T00:13:09.108Z,2.12
2019-01-09T00:18:11.272Z,2.32
2019-01-09T00:23:13.366Z,2.06
2019-01-09T00:28:15.498Z,2.05
2019-01-09T00:33:17.528Z,1.93
2019-01-09T00:38:19.560Z,1.88
2019-01-09T00:43:21.675Z,1.84
2019-01-09T00:48:23.695Z,1.86
2019-01-09T00:53:25.796Z,1.91
2019-01-09T00:58:28.053Z,1.87
2019-01-09T01:04:10.379Z,1.79
2019-01-09T01:09:52.215Z,1.75
2019-01-09T01:15:24.810Z,1.76
2019-01-09T01:20:36.191Z,1.73
2019-01-09T01:26:15.440Z,1.69
2019-01-09T01:31:47.267Z,1.63
2019-01-09T01:37:30.036Z,1.62
2019-01-09T01:43:01.027Z,1.53
2019-01-09T01:48:18.046Z,1.43
2019-01-09T01:53:33.334Z,1.41
2019-01-09T01:58:53.257Z,1.34
2019-01-09T02:04:32.280Z,1.23
2019-01-09T02:09:50.560Z,1.09
2019-01-09T02:15:45.954Z,0.99
2019-01-09T02:21:06.253Z,0.83
2019-01-09T02:26:47.636Z,0.95
2019-01-09T02:32:00.723Z,0.94
2019-01-09T02:37:02.675Z,1.01
2019-01-09T02:42:04.631Z,0.93
2019-01-09T02:47:06.651Z,1.07
2019-01-09T02:52:08.698Z,1.11
2019-01-09T02:57:10.765Z,1.09
2019-01-09T03:02:12.753Z,1.02
2019-01-09T03:07:14.779Z,1.09
2019-01-09T03:12:16.824Z,1.10
2019-01-09T03:17:18.834Z,1.02
2019-01-09T03:22:20.871Z,0.91
2019-01-09T03:27:22.910Z,0.96
2019-01-09T03:32:25.023Z,1.06
2019-01-09T03:37:27.417Z,1.00
2019-01-09T03:42:29.322Z,1.01
2019-01-09T03:47:31.340Z,1.09
2019-01-09T03:52:33.645Z,1.10
2019-01-09T03:57:35.587Z,1.04
2019-01-09T04:02:37.512Z,0.96
2019-01-09T04:07:39.563Z,0.96
2019-01-09T04:12:41.605Z,0.89
2019-01-09T04:17:43.539Z,0.94
2019-01-09T04:22:45.451Z,0.81
2019-01-09T04:27:47.566Z,0.82
2019-01-09T04:32:49.428Z,0.85
2019-01-09T04:37:52.130Z,0.85
2019-01-09T04:42:54.150Z,0.86
2019-01-09T04:47:56.069Z,0.88
2019-01-09T04:52:58.049Z,0.87
2019-01-09T04:58:00.062Z,0.98
2019-01-09T05:03:02.209Z,0.98
2019-01-09T05:08:04.242Z,0.92
2019-01-09T05:13:06.207Z,0.94
2019-01-09T05:18:08.253Z,0.98
2019-01-09T05:23:10.261Z,1.10
2019-01-09T05:28:12.182Z,1.10
2019-01-09T05:33:14.096Z,1.11
2019-01-09T05:38:16.089Z,1.06
2019-01-09T05:43:18.128Z,1.01
2019-01-09T05:48:20.029Z,0.98
2019-01-09T05:53:22.133Z,1.08
2019-01-09T05:58:24.036Z,1.10
2019-01-09T06:03:26.062Z,1.05
2019-01-09T06:08:27.989Z,1.05
2019-01-09T06:13:30.120Z,1.09
2019-01-09T06:18:32.129Z,1.16
2019-01-09T06:23:34.079Z,1.10
2019-01-09T06:28:37.145Z,1.12
2019-01-09T06:33:39.149Z,1.08
2019-01-09T06:38:41.106Z,1.06
2019-01-09T06:43:43.042Z,1.00
2019-01-09T06:48:44.961Z,1.04
2019-01-09T06:53:46.951Z,1.03
2019-01-09T06:58:48.905Z,1.02
2019-01-09T07:03:50.993Z,1.04
2019-01-09T07:08:59.045Z,1.03
2019-01-09T07:14:01.114Z,1.07
2019-01-09T07:19:03.211Z,1.11
2019-01-09T07:24:05.281Z,1.06
2019-01-09T07:29:07.246Z,1.07
2019-01-09T07:34:09.233Z,1.14
2019-01-09T07:39:11.180Z,1.16
2019-01-09T07:44:13.420Z,1.25
2019-01-09T07:49:15.340Z,1.28
2019-01-09T07:54:17.394Z,1.29
2019-01-09T07:59:20.530Z,1.40
2019-01-09T08:04:22.435Z,1.51
2019-01-09T08:09:24.362Z,1.46
2019-01-09T08:14:26.329Z,1.55
2019-01-09T08:19:28.229Z,1.60
2019-01-09T08:24:31.209Z,1.55
2019-01-09T08:29:33.245Z,1.57
2019-01-09T08:34:36.580Z,1.68
2019-01-09T08:39:38.763Z,1.64
2019-01-09T08:44:40.829Z,1.54
2019-01-09T08:49:42.880Z,1.54
2019-01-09T08:54:44.992Z,1.54
2019-01-09T08:59:46.956Z,1.53
2019-01-09T09:04:48.896Z,1.60
2019-01-09T09:09:50.978Z,1.51
2019-01-09T09:14:52.921Z,1.46
2019-01-09T09:19:54.861Z,1.48
2019-01-09T09:24:59.439Z,1.45
2019-01-09T09:30:01.537Z,1.46
2019-01-09T09:35:03.765Z,1.57
2019-01-09T09:40:07.665Z,1.47
2019-01-09T09:45:10.250Z,1.51
2019-01-09T09:50:13.491Z,1.48
2019-01-09T09:55:15.474Z,1.45
2019-01-09T10:00:19.080Z,1.49
2019-01-09T10:05:21.020Z,1.48
2019-01-09T10:10:22.938Z,1.56
2019-01-09T10:15:24.852Z,1.55
2019-01-09T10:20:26.774Z,1.68
2019-01-09T10:25:28.866Z,1.52
2019-01-09T10:30:30.971Z,1.55
2019-01-09T10:35:32.942Z,1.58
2019-01-09T10:40:36.310Z,1.60
2019-01-09T10:45:39.709Z,1.62
2019-01-09T10:50:41.628Z,1.69
2019-01-09T10:55:43.569Z,1.67
2019-01-09T11:00:46.284Z,1.69
2019-01-09T11:05:48.317Z,1.63
2019-01-09T11:10:50.215Z,1.59
2019-01-09T11:15:52.229Z,1.57
2019-01-09T11:20:54.154Z,1.70
2019-01-09T11:25:56.062Z,1.51
2019-01-09T11:30:58.185Z,1.51
2019-01-09T11:36:00.121Z,1.43
2019-01-09T11:41:02.257Z,1.47
2019-01-09T11:46:04.381Z,1.44
2019-01-09T11:51:06.298Z,1.45
2019-01-09T11:56:08.415Z,1.40
2019-01-09T12:01:10.542Z,1.31
2019-01-09T12:06:12.500Z,1.21
2019-01-09T12:11:14.416Z,1.21
2019-01-09T12:16:16.353Z,1.19
2019-01-09T12:21:18.287Z,1.26
2019-01-09T12:26:20.416Z,1.22
2019-01-09T12:31:22.445Z,1.10
2019-01-09T12:36:24.422Z,0.96
2019-01-09T12:41:26.343Z,0.84
2019-01-09T12:46:28.286Z,0.79
2019-01-09T12:51:30.202Z,0.83
2019-01-09T12:56:32.520Z,0.83
2019-01-09T13:01:34.460Z,0.83
2019-01-09T13:06:36.489Z,0.80
2019-01-09T13:11:38.383Z,0.82
2019-01-09T13:16:47.675Z,0.81
2019-01-09T13:21:44.425Z,0.86
2019-01-09T13:26:46.348Z,0.82
2019-01-09T13:31:48.331Z,0.79
2019-01-09T13:36:50.351Z,0.82
2019-01-09T13:41:55.086Z,0.87
2019-01-09T13:46:57.207Z,0.90
2019-01-09T13:51:59.136Z,0.92
2019-01-09T13:57:01.042Z,0.98
2019-01-09T14:02:03.108Z,0.97
2019-01-09T14:07:05.061Z,1.04
2019-01-09T14:12:06.955Z,1.10
2019-01-09T14:17:08.985Z,1.04
2019-01-09T14:22:11.266Z,1.02
2019-01-09T14:27:13.197Z,1.09
2019-01-09T14:32:15.269Z,1.20
2019-01-09T14:37:17.249Z,1.35
2019-01-09T14:42:19.295Z,1.46
2019-01-09T14:47:21.189Z,1.40
2019-01-09T14:52:23.115Z,1.44
2019-01-09T14:57:25.226Z,1.46
2019-01-09T15:02:27.139Z,1.46
2019-01-09T15:07:29.217Z,1.54
2019-01-09T15:12:31.329Z,1.54
2019-01-09T15:17:33.240Z,1.56
2019-01-09T15:22:35.378Z,1.55
2019-01-09T15:27:37.503Z,1.58
2019-01-09T15:32:39.537Z,1.54
2019-01-09T15:37:41.588Z,1.56
2019-01-09T15:42:43.721Z,1.55
2019-01-09T15:47:45.849Z,1.55
2019-01-09T15:52:47.771Z,1.50
2019-01-09T15:57:50.040Z,1.52
2019-01-09T16:02:53.279Z,1.31
2019-01-09T16:07:55.266Z,1.34
2019-01-09T16:12:57.204Z,1.32
2019-01-09T16:17:59.592Z,1.34
2019-01-09T16:23:01.648Z,1.32
2019-01-09T16:28:03.720Z,1.31
2019-01-09T16:33:05.749Z,1.30
2019-01-09T16:38:07.697Z,1.27
2019-01-09T16:43:09.633Z,1.26
2019-01-09T16:48:11.948Z,1.14
2019-01-09T16:53:13.860Z,1.12
2019-01-09T16:58:15.937Z,1.12
2019-01-09T17:03:18.390Z,1.04
2019-01-09T17:08:20.404Z,1.00
2019-01-09T17:13:22.324Z,0.99
2019-01-09T17:18:24.572Z,0.98
2019-01-09T17:23:26.501Z,1.17
2019-01-09T17:28:28.859Z,1.10
2019-01-09T17:33:30.760Z,1.06
2019-01-09T17:38:32.877Z,1.04
2019-01-09T17:43:34.787Z,1.01
2019-01-09T17:48:38.601Z,0.96
2019-01-09T17:53:40.509Z,0.91
2019-01-09T17:58:42.421Z,0.90
2019-01-09T18:03:44.337Z,0.90
2019-01-09T18:08:46.745Z,0.80
2019-01-09T18:13:49.947Z,0.70
2019-01-09T18:18:52.159Z,0.78
2019-01-09T18:23:54.094Z,0.80
2019-01-09T18:28:56.009Z,0.82
2019-01-09T18:34:11.755Z,0.76
2019-01-09T18:39:57.803Z,0.78
2019-01-09T18:45:28.587Z,0.77
2019-01-09T18:51:15.108Z,0.69
2019-01-09T18:56:17.116Z,0.66
2019-01-09T19:01:19.270Z,0.65
2019-01-09T19:06:21.363Z,0.69
2019-01-09T19:11:23.272Z,0.72
2019-01-09T19:16:25.549Z,0.71
2019-01-09T19:21:27.630Z,0.73
2019-01-09T19:26:29.651Z,0.75
2019-01-09T19:31:31.556Z,0.76
2019-01-09T19:36:33.633Z,0.80
2019-01-09T19:47:18.092Z,0.79
2019-01-09T19:52:20.005Z,0.76
2019-01-09T19:57:22.134Z,0.76
2019-01-09T20:02:24.008Z,0.78
2019-01-09T20:07:26.040Z,0.75
2019-01-09T20:12:28.164Z,0.78
2019-01-09T20:17:30.180Z,0.75
2019-01-09T20:22:32.281Z,0.69
2019-01-09T20:27:34.375Z,0.71
2019-01-09T20:32:36.504Z,0.75
2019-01-09T20:37:38.669Z,0.77
2019-01-09T20:42:40.905Z,0.77
2019-01-09T20:47:43.081Z,0.79
2019-01-09T20:52:44.959Z,0.87
2019-01-09T20:57:47.047Z,0.86
2019-01-09T21:02:49.746Z,0.89
2019-01-09T21:07:51.748Z,0.91
2019-01-09T21:12:53.924Z,0.94
2019-01-09T21:17:56.026Z,1.06
2019-01-09T21:22:58.026Z,1.08
2019-01-09T21:28:00.024Z,1.11
2019-01-09T21:33:01.954Z,1.12
2019-01-09T21:38:03.999Z,1.21
2019-01-09T21:43:06.053Z,1.21
2019-01-09T21:48:08.294Z,1.23
2019-01-09T21:53:10.188Z,1.24
2019-01-09T21:58:12.217Z,1.29
2019-01-09T22:03:14.330Z,1.32
2019-01-09T22:08:16.423Z,1.30
2019-01-09T22:13:19.837Z,1.30
2019-01-09T22:18:22.248Z,1.35
2019-01-09T22:23:24.341Z,1.35
2019-01-09T22:28:26.353Z,1.40
2019-01-09T22:33:28.371Z,1.41
2019-01-09T22:38:30.327Z,1.46
2019-01-09T22:43:32.368Z,1.47
2019-01-09T22:48:36.257Z,1.50
2019-01-09T22:53:40.086Z,1.51
2019-01-09T22:58:41.989Z,1.55
2019-01-09T23:03:44.515Z,1.61
2019-01-09T23:08:46.610Z,1.62
2019-01-09T23:13:48.828Z,1.59
2019-01-09T23:18:50.929Z,1.60
2019-01-09T23:23:53.005Z,1.58
2019-01-09T23:28:54.941Z,1.60
2019-01-09T23:33:56.991Z,1.59
2019-01-09T23:39:02.349Z,1.57
2019-01-09T23:44:05.739Z,1.60
2019-01-09T23:49:08.084Z,1.56
2019-01-09T23:54:10.731Z,1.60
2019-01-09T23:59:12.645Z,1.57
